Strensall, United Kingdom
Current Conditions -  °F | °C
As of 9:50 PM on Monday 20 Oct 2014 (Local Time) from EGXU Reporting Station
Broken Clouds Broken Clouds  
Wind Chill: 54°   Ceiling: 16000
Heat Index: 54°   Visibility: NA
Dew Point: 48°   Wind: 10mph
Humidity: 82%   Direction: 170°S
Pressure: 29.71"   Gusts: NA
Location:  54.04°N, 1.04°W
Report Text: EGXU 202050Z AUTO 17009KT //// // FEW042/// BKN160/// 12/09 Q1006
Loading
Personal Weather Stations






























Interactive Weather Map
Tropical Storm Tracking
New forecast layout! Learn more

10-Day Weather Forecast

Advertisements
Track Severe Weather on mobile